createdAt,value
2022-08-11T00:00:53.296Z,0.00
2022-08-11T00:01:53.281Z,0.00
2022-08-11T00:02:53.291Z,0.00
2022-08-11T00:03:53.262Z,0.00
2022-08-11T00:04:53.268Z,0.00
2022-08-11T00:05:53.267Z,0.00
2022-08-11T00:06:53.237Z,0.00
2022-08-11T00:07:53.223Z,0.00
2022-08-11T00:08:53.266Z,0.00
2022-08-11T00:09:53.247Z,0.00
2022-08-11T00:10:53.199Z,0.00
2022-08-11T00:11:53.190Z,0.00
2022-08-11T00:12:54.178Z,0.00
2022-08-11T00:13:53.169Z,0.00
2022-08-11T00:14:53.176Z,0.00
2022-08-11T00:15:53.148Z,0.00
2022-08-11T00:16:53.137Z,0.00
2022-08-11T00:17:53.130Z,0.00
2022-08-11T00:18:53.123Z,0.00
2022-08-11T00:20:12.402Z,0.00
2022-08-11T00:20:54.104Z,0.00
2022-08-11T00:22:04.912Z,0.00
2022-08-11T00:22:54.086Z,0.00
2022-08-11T00:23:53.073Z,0.00
2022-08-11T00:24:57.225Z,0.00
2022-08-11T00:25:54.051Z,0.00
2022-08-11T00:26:53.043Z,0.00
2022-08-11T00:27:53.031Z,0.00
2022-08-11T00:28:53.020Z,0.00
2022-08-11T00:29:53.028Z,0.00
2022-08-11T00:30:53.010Z,0.00
2022-08-11T00:31:52.991Z,0.00
2022-08-11T00:32:52.991Z,0.00
2022-08-11T00:33:52.973Z,0.00
2022-08-11T00:34:52.984Z,0.00
2022-08-11T00:35:57.669Z,0.00
2022-08-11T00:36:52.949Z,0.00
2022-08-11T00:37:52.935Z,0.00
2022-08-11T00:38:52.947Z,0.00
2022-08-11T00:39:53.034Z,0.00
2022-08-11T00:40:52.927Z,0.00
2022-08-11T00:41:56.776Z,0.00
2022-08-11T00:42:52.887Z,0.00
2022-08-11T00:43:52.879Z,0.00
2022-08-11T00:44:52.867Z,0.00
2022-08-11T00:45:52.901Z,0.00
2022-08-11T00:46:52.857Z,0.00
2022-08-11T00:47:52.842Z,0.00
2022-08-11T00:48:52.835Z,0.00
2022-08-11T00:49:52.822Z,0.00
2022-08-11T00:50:52.831Z,0.00
2022-08-11T00:52:02.029Z,0.00
2022-08-11T00:52:53.797Z,0.00
2022-08-11T00:53:52.785Z,0.00
2022-08-11T00:54:52.775Z,0.00
2022-08-11T00:55:55.469Z,0.00
2022-08-11T00:56:52.761Z,0.00
2022-08-11T00:57:52.745Z,0.00
2022-08-11T00:58:52.741Z,0.00
2022-08-11T00:59:52.725Z,0.00
2022-08-11T01:00:52.759Z,0.00
2022-08-11T01:01:52.702Z,0.00
2022-08-11T01:02:52.701Z,0.00
2022-08-11T01:03:52.688Z,0.00
2022-08-11T01:04:55.745Z,0.00
2022-08-11T01:05:52.681Z,0.00
2022-08-11T01:06:52.662Z,0.00
2022-08-11T01:08:02.388Z,0.00
2022-08-11T01:08:53.689Z,0.00
2022-08-11T01:09:52.628Z,0.00
2022-08-11T01:10:52.688Z,0.00
2022-08-11T01:11:55.727Z,0.00
2022-08-11T01:12:52.603Z,0.00
2022-08-11T01:13:52.594Z,0.00
2022-08-11T01:14:52.588Z,0.00
2022-08-11T01:15:57.019Z,0.00
2022-08-11T01:16:52.632Z,0.00
2022-08-11T01:17:52.555Z,0.00
2022-08-11T01:18:52.544Z,0.00
2022-08-11T01:20:44.724Z,0.00
2022-08-11T01:20:53.546Z,0.00
2022-08-11T01:21:52.522Z,0.00
2022-08-11T01:22:52.566Z,0.00
2022-08-11T01:23:52.503Z,0.00
2022-08-11T01:24:52.485Z,0.00
2022-08-11T01:25:57.061Z,0.00
2022-08-11T01:26:53.470Z,0.00
2022-08-11T01:27:52.463Z,0.00
2022-08-11T01:28:52.539Z,0.00
2022-08-11T01:29:52.436Z,0.00
2022-08-11T01:30:54.293Z,0.00
2022-08-11T01:31:52.425Z,0.00
2022-08-11T01:32:52.410Z,0.00
2022-08-11T01:33:52.404Z,0.00
2022-08-11T01:34:52.387Z,0.00
2022-08-11T01:35:52.597Z,0.00
2022-08-11T01:36:53.585Z,0.00
2022-08-11T01:37:52.358Z,0.00
2022-08-11T01:38:52.346Z,0.00
2022-08-11T01:39:52.424Z,0.00
2022-08-11T01:40:52.346Z,0.00
2022-08-11T01:41:52.324Z,0.00
2022-08-11T01:42:52.312Z,0.00
2022-08-11T01:43:52.297Z,0.00
2022-08-11T01:44:52.294Z,0.00
2022-08-11T01:45:52.379Z,0.00
2022-08-11T01:46:52.444Z,0.00
2022-08-11T01:47:53.521Z,0.00
2022-08-11T01:48:52.252Z,0.00
2022-08-11T01:50:09.438Z,0.00
2022-08-11T01:50:53.248Z,0.00
2022-08-11T01:51:52.225Z,0.00
2022-08-11T01:52:52.386Z,0.00
2022-08-11T01:53:52.199Z,0.00
2022-08-11T01:54:52.191Z,0.00
2022-08-11T01:55:52.238Z,0.00
2022-08-11T01:56:52.167Z,0.00
2022-08-11T01:57:52.165Z,0.00
2022-08-11T01:58:52.156Z,0.00
2022-08-11T01:59:52.147Z,0.00
2022-08-11T02:00:52.192Z,0.00
2022-08-11T02:01:52.223Z,0.00
2022-08-11T02:02:52.113Z,0.00
2022-08-11T02:03:52.107Z,0.00
2022-08-11T02:04:52.094Z,0.00
2022-08-11T02:05:52.083Z,0.00
2022-08-11T02:06:52.090Z,0.00
2022-08-11T02:07:52.069Z,0.00
2022-08-11T02:08:52.054Z,0.00
2022-08-11T02:09:52.045Z,0.00
2022-08-11T02:10:52.035Z,0.00
2022-08-11T02:11:52.042Z,0.00
2022-08-11T02:12:52.412Z,0.00
2022-08-11T02:13:52.007Z,0.00
2022-08-11T02:15:04.779Z,0.00
2022-08-11T02:15:52.993Z,0.00
2022-08-11T02:16:51.999Z,0.00
2022-08-11T02:17:54.703Z,0.00
2022-08-11T02:18:51.963Z,0.00
2022-08-11T02:19:51.958Z,0.00
2022-08-11T02:20:51.951Z,0.00
2022-08-11T02:21:51.946Z,0.00
2022-08-11T02:22:51.944Z,0.00
2022-08-11T02:24:07.106Z,0.00
2022-08-11T02:24:52.900Z,0.00
2022-08-11T02:25:51.980Z,0.00
2022-08-11T02:26:51.901Z,0.00
2022-08-11T02:27:51.878Z,0.00
2022-08-11T02:28:51.862Z,0.00
2022-08-11T02:29:51.862Z,0.00
2022-08-11T02:30:51.862Z,0.00
2022-08-11T02:32:24.373Z,0.00
2022-08-11T02:32:53.030Z,0.00
2022-08-11T02:33:51.821Z,0.00
2022-08-11T02:34:59.411Z,0.00
2022-08-11T02:35:51.806Z,0.00
2022-08-11T02:36:52.045Z,0.00
2022-08-11T02:37:51.823Z,0.00
2022-08-11T02:38:52.007Z,0.00
2022-08-11T02:39:51.814Z,0.00
2022-08-11T02:40:51.756Z,0.00
2022-08-11T02:41:51.762Z,0.00
2022-08-11T02:42:51.731Z,0.00
2022-08-11T02:43:51.856Z,0.00
2022-08-11T02:44:51.711Z,0.00
2022-08-11T02:45:51.723Z,0.00
2022-08-11T02:46:51.704Z,0.00
2022-08-11T02:47:51.687Z,0.00
2022-08-11T02:48:51.679Z,0.00
2022-08-11T02:50:02.721Z,0.00
2022-08-11T02:50:52.653Z,0.00
2022-08-11T02:51:51.702Z,0.00
2022-08-11T02:52:51.637Z,0.00
2022-08-11T02:53:57.995Z,0.00
2022-08-11T02:54:52.618Z,0.00
2022-08-11T02:55:57.983Z,0.00
2022-08-11T02:56:52.636Z,0.00
2022-08-11T02:57:51.594Z,0.00
2022-08-11T02:58:51.582Z,0.00
2022-08-11T02:59:51.593Z,0.00
2022-08-11T03:00:51.590Z,0.00
2022-08-11T03:01:51.623Z,0.00
2022-08-11T03:02:51.578Z,0.00
2022-08-11T03:03:51.545Z,0.00
2022-08-11T03:04:51.533Z,0.00
2022-08-11T03:05:52.908Z,0.00
2022-08-11T03:06:51.522Z,0.00
2022-08-11T03:07:51.509Z,0.00
2022-08-11T03:08:51.500Z,0.00
2022-08-11T03:09:51.485Z,0.00
2022-08-11T03:10:51.465Z,0.00
2022-08-11T03:11:51.479Z,0.00
2022-08-11T03:12:53.666Z,0.00
2022-08-11T03:13:51.451Z,0.00
2022-08-11T03:14:51.426Z,0.00
2022-08-11T03:15:51.435Z,0.00
2022-08-11T03:16:51.475Z,0.00
2022-08-11T03:17:51.400Z,0.00
2022-08-11T03:18:51.399Z,0.00
2022-08-11T03:19:51.582Z,0.00
2022-08-11T03:20:51.372Z,0.00
2022-08-11T03:22:03.060Z,0.00
2022-08-11T03:22:52.353Z,0.00
2022-08-11T03:23:51.347Z,0.00
2022-08-11T03:24:51.337Z,0.00
2022-08-11T03:25:51.324Z,0.00
2022-08-11T03:26:51.325Z,4.00
2022-08-11T03:27:51.303Z,4.00
2022-08-11T03:28:51.292Z,0.00
2022-08-11T03:29:51.284Z,0.00
2022-08-11T03:30:51.282Z,4.00
2022-08-11T03:31:51.285Z,4.00
2022-08-11T03:32:51.252Z,4.00
2022-08-11T03:33:51.247Z,4.00
2022-08-11T03:34:51.233Z,4.00
2022-08-11T03:35:51.227Z,4.00
2022-08-11T03:37:15.067Z,4.00
2022-08-11T03:37:52.482Z,8.00
2022-08-11T03:38:51.271Z,8.00
2022-08-11T03:39:56.160Z,12.00
2022-08-11T03:40:52.178Z,16.00
2022-08-11T03:42:04.489Z,16.00
2022-08-11T03:42:52.157Z,16.00
2022-08-11T03:43:58.415Z,20.00
2022-08-11T03:44:51.354Z,24.00
2022-08-11T03:45:51.134Z,28.00
2022-08-11T03:46:51.139Z,32.00
2022-08-11T03:47:54.958Z,36.00
2022-08-11T03:48:51.115Z,44.00
2022-08-11T03:49:51.095Z,48.00
2022-08-11T03:50:54.958Z,56.00
2022-08-11T03:51:52.187Z,64.00
2022-08-11T03:52:51.247Z,72.00
2022-08-11T03:53:51.052Z,84.00
2022-08-11T03:54:51.046Z,92.00
2022-08-11T03:55:51.039Z,104.00
2022-08-11T03:56:51.034Z,112.00
2022-08-11T03:57:51.017Z,128.00
2022-08-11T03:58:51.113Z,140.00
2022-08-11T03:59:50.996Z,156.00
2022-08-11T04:00:50.987Z,172.00
2022-08-11T04:01:51.039Z,188.00
2022-08-11T04:02:50.969Z,204.00
2022-08-11T04:03:50.961Z,220.00
2022-08-11T04:04:51.641Z,240.00
2022-08-11T04:05:51.021Z,260.00
2022-08-11T04:06:50.940Z,276.00
2022-08-11T04:07:50.920Z,300.00
2022-08-11T04:08:50.910Z,320.00
2022-08-11T04:09:50.899Z,340.00
2022-08-11T04:10:50.890Z,364.00
2022-08-11T04:11:50.896Z,384.00
2022-08-11T04:12:51.018Z,412.00
2022-08-11T04:13:50.867Z,436.00
2022-08-11T04:14:50.850Z,460.00
2022-08-11T04:15:51.059Z,484.00
2022-08-11T04:16:50.836Z,512.00
2022-08-11T04:17:50.837Z,536.00
2022-08-11T04:18:50.816Z,564.00
2022-08-11T04:19:50.803Z,592.00
2022-08-11T04:20:50.792Z,620.00
2022-08-11T04:21:50.781Z,648.00
2022-08-11T04:22:50.781Z,676.00
2022-08-11T04:24:35.010Z,704.00
2022-08-11T04:24:51.776Z,732.00
2022-08-11T04:25:55.854Z,760.00
2022-08-11T04:26:51.729Z,792.00
2022-08-11T04:27:50.861Z,820.00
2022-08-11T04:28:50.897Z,848.00
2022-08-11T04:30:02.101Z,880.00
2022-08-11T04:30:51.896Z,908.00
2022-08-11T04:31:52.738Z,940.00
2022-08-11T04:32:50.680Z,964.00
2022-08-11T04:33:52.064Z,1000.00
2022-08-11T04:34:50.658Z,1024.00
2022-08-11T04:35:51.418Z,1052.00
2022-08-11T04:36:50.635Z,1084.00
2022-08-11T04:37:51.351Z,1108.00
2022-08-11T04:38:50.623Z,1140.00
2022-08-11T04:39:50.705Z,1164.00
2022-08-11T04:40:50.600Z,1192.00
2022-08-11T04:41:50.594Z,1220.00
2022-08-11T04:42:50.596Z,1248.00
2022-08-11T04:44:02.887Z,1272.00
2022-08-11T04:44:51.570Z,1296.00
2022-08-11T04:45:50.551Z,1324.00
2022-08-11T04:46:50.537Z,1356.00
2022-08-11T04:48:03.536Z,1380.00
2022-08-11T04:48:51.523Z,1408.00
2022-08-11T04:49:50.530Z,1436.00
2022-08-11T04:51:08.591Z,1456.00
2022-08-11T04:51:51.552Z,1484.00
2022-08-11T04:52:50.571Z,1512.00
2022-08-11T04:53:52.265Z,1536.00
2022-08-11T04:54:50.809Z,1564.00
2022-08-11T04:55:50.465Z,1584.00
2022-08-11T04:56:50.597Z,1608.00
2022-08-11T04:57:50.450Z,1636.00
2022-08-11T04:58:50.423Z,1656.00
2022-08-11T04:59:50.423Z,1680.00
2022-08-11T05:00:50.425Z,1704.00
2022-08-11T05:01:50.464Z,1724.00
2022-08-11T05:02:50.430Z,1748.00
2022-08-11T05:03:50.399Z,1768.00
2022-08-11T05:04:50.368Z,1792.00
2022-08-11T05:05:56.496Z,1812.00
2022-08-11T05:06:51.353Z,1836.00
2022-08-11T05:07:50.374Z,1856.00
2022-08-11T05:08:50.333Z,1880.00
2022-08-11T05:09:50.328Z,1900.00
2022-08-11T05:10:50.311Z,1920.00
2022-08-11T05:11:50.321Z,1936.00
2022-08-11T05:12:50.309Z,1960.00
2022-08-11T05:13:50.287Z,1980.00
2022-08-11T05:14:50.274Z,2000.00
2022-08-11T05:15:51.597Z,2016.00
2022-08-11T05:16:50.265Z,2036.00
2022-08-11T05:17:50.251Z,2056.00
2022-08-11T05:18:50.238Z,2076.00
2022-08-11T05:19:50.228Z,2096.00
2022-08-11T05:20:50.218Z,2112.00
2022-08-11T05:21:50.226Z,2136.00
2022-08-11T05:22:50.197Z,2148.00
2022-08-11T05:23:50.196Z,2172.00
2022-08-11T05:24:50.179Z,2188.00
2022-08-11T05:26:43.342Z,2204.00
2022-08-11T05:26:51.176Z,2228.00
2022-08-11T05:27:50.152Z,2244.00
2022-08-11T05:28:50.137Z,2268.00
2022-08-11T05:29:50.132Z,2288.00
2022-08-11T05:30:50.116Z,2304.00
2022-08-11T05:31:50.132Z,2324.00
2022-08-11T05:32:50.093Z,2336.00
2022-08-11T05:33:50.090Z,2356.00
2022-08-11T05:34:50.081Z,2372.00
2022-08-11T05:36:00.825Z,2384.00
2022-08-11T05:36:51.083Z,2400.00
2022-08-11T05:37:50.046Z,2416.00
2022-08-11T05:38:50.047Z,2432.00
2022-08-11T05:39:50.100Z,2444.00
2022-08-11T05:40:51.126Z,2460.00
2022-08-11T05:41:50.034Z,2476.00
2022-08-11T05:42:50.005Z,2496.00
2022-08-11T05:44:20.605Z,2516.00
2022-08-11T05:44:50.993Z,2536.00
2022-08-11T05:46:02.772Z,2560.00
2022-08-11T05:46:50.980Z,2584.00
2022-08-11T05:47:49.958Z,2608.00
2022-08-11T05:48:49.974Z,2648.00
2022-08-11T05:49:49.939Z,2688.00
2022-08-11T05:50:49.928Z,2716.00
2022-08-11T05:51:55.111Z,2732.00
2022-08-11T05:52:55.453Z,2748.00
2022-08-11T05:53:50.058Z,2768.00
2022-08-11T05:54:49.889Z,2784.00
2022-08-11T05:56:01.649Z,2808.00
2022-08-11T05:56:50.887Z,2828.00
2022-08-11T05:57:51.900Z,2848.00
2022-08-11T05:58:49.845Z,2868.00
2022-08-11T05:59:49.843Z,2884.00
2022-08-11T06:00:49.843Z,2904.00
2022-08-11T06:01:49.882Z,2924.00
2022-08-11T06:02:49.824Z,2944.00
2022-08-11T06:03:58.665Z,2968.00
2022-08-11T06:04:50.812Z,2992.00
2022-08-11T06:05:50.823Z,3008.00
2022-08-11T06:06:49.770Z,3032.00
2022-08-11T06:07:50.305Z,3048.00
2022-08-11T06:08:49.758Z,3064.00
2022-08-11T06:09:49.743Z,3088.00
2022-08-11T06:10:49.739Z,3104.00
2022-08-11T06:11:49.727Z,3124.00
2022-08-11T06:12:49.732Z,3148.00
2022-08-11T06:13:49.715Z,3168.00
2022-08-11T06:14:49.710Z,3184.00
2022-08-11T06:15:49.693Z,3196.00
2022-08-11T06:16:49.879Z,3208.00
2022-08-11T06:17:49.682Z,3232.00
2022-08-11T06:18:49.670Z,3252.00
2022-08-11T06:19:49.657Z,3272.00
2022-08-11T06:20:49.658Z,3292.00
2022-08-11T06:21:49.636Z,3312.00
2022-08-11T06:22:52.933Z,3328.00
2022-08-11T06:23:49.608Z,3340.00
2022-08-11T06:24:49.610Z,3356.00
2022-08-11T06:25:49.599Z,3372.00
2022-08-11T06:27:11.331Z,3392.00
2022-08-11T06:27:50.588Z,3408.00
2022-08-11T06:28:49.656Z,3428.00
2022-08-11T06:29:55.134Z,3444.00
2022-08-11T06:30:50.550Z,3464.00
2022-08-11T06:31:49.534Z,3484.00
2022-08-11T06:32:49.534Z,3504.00
2022-08-11T06:33:49.511Z,3516.00
2022-08-11T06:34:49.508Z,3528.00
2022-08-11T06:35:49.499Z,3540.00
2022-08-11T06:36:49.486Z,3556.00
2022-08-11T06:37:49.506Z,3572.00
2022-08-11T06:38:49.472Z,3588.00
2022-08-11T06:39:49.505Z,3608.00
2022-08-11T06:40:49.445Z,3628.00
2022-08-11T06:41:49.436Z,3644.00
2022-08-11T06:42:49.436Z,3664.00
2022-08-11T06:43:55.941Z,3684.00
2022-08-11T06:44:50.403Z,3708.00
2022-08-11T06:45:49.392Z,3724.00
2022-08-11T06:46:49.386Z,3744.00
2022-08-11T06:47:49.404Z,3768.00
2022-08-11T06:48:49.380Z,3788.00
2022-08-11T06:49:49.361Z,3812.00
2022-08-11T06:50:49.348Z,3840.00
2022-08-11T06:51:49.335Z,3868.00
2022-08-11T06:52:49.626Z,3900.00
2022-08-11T06:53:49.496Z,3928.00
2022-08-11T06:54:50.307Z,3964.00
2022-08-11T06:55:57.917Z,3988.00
2022-08-11T06:57:01.723Z,4012.00
2022-08-11T06:57:50.278Z,4036.00
2022-08-11T06:58:49.288Z,4068.00
2022-08-11T06:59:49.253Z,4092.00
2022-08-11T07:00:49.250Z,4120.00
2022-08-11T07:01:49.583Z,4144.00
2022-08-11T07:02:49.233Z,4172.00
2022-08-11T07:03:49.237Z,4188.00
2022-08-11T07:04:49.209Z,4212.00
2022-08-11T07:05:49.202Z,4236.00
2022-08-11T07:06:50.386Z,4260.00
2022-08-11T07:07:49.181Z,4280.00
2022-08-11T07:08:49.192Z,4300.00
2022-08-11T07:09:49.160Z,4316.00
2022-08-11T07:10:49.154Z,4336.00
2022-08-11T07:11:49.143Z,4352.00
2022-08-11T07:12:49.132Z,4376.00
2022-08-11T07:13:49.136Z,4400.00
2022-08-11T07:14:49.113Z,4428.00
2022-08-11T07:16:12.205Z,4448.00
2022-08-11T07:16:50.094Z,4472.00
2022-08-11T07:17:49.076Z,4496.00
2022-08-11T07:18:49.085Z,4520.00
2022-08-11T07:19:49.061Z,4544.00
2022-08-11T07:20:49.052Z,4560.00
2022-08-11T07:22:02.346Z,4588.00
2022-08-11T07:22:50.040Z,4616.00
2022-08-11T07:23:49.040Z,4640.00
2022-08-11T07:25:01.388Z,4664.00
2022-08-11T07:25:50.010Z,4688.00
2022-08-11T07:26:49.001Z,4708.00
2022-08-11T07:27:48.989Z,4736.00
2022-08-11T07:28:48.990Z,4764.00
2022-08-11T07:29:48.969Z,4796.00
2022-08-11T07:30:51.859Z,4824.00
2022-08-11T07:31:50.011Z,4848.00
2022-08-11T07:32:48.939Z,4880.00
2022-08-11T07:34:08.408Z,4920.00
2022-08-11T07:34:49.927Z,4952.00
2022-08-11T07:35:48.946Z,4980.00
2022-08-11T07:36:48.897Z,5016.00
2022-08-11T07:37:48.881Z,5052.00
2022-08-11T07:38:49.058Z,5092.00
2022-08-11T07:39:48.925Z,5140.00
2022-08-11T07:40:48.864Z,5180.00
2022-08-11T07:41:48.841Z,5248.00
2022-08-11T07:42:48.841Z,5316.00
2022-08-11T07:43:48.820Z,5388.00
2022-08-11T07:44:48.830Z,5476.00
2022-08-11T07:45:48.805Z,5568.00
2022-08-11T07:46:48.792Z,5672.00
2022-08-11T07:47:48.778Z,5828.00
2022-08-11T07:48:48.787Z,6068.00
2022-08-11T07:49:48.779Z,6496.00
2022-08-11T07:50:51.811Z,10264.00
2022-08-11T07:51:48.747Z,13968.00
2022-08-11T07:52:52.799Z,20640.00
2022-08-11T07:53:58.781Z,21856.00
2022-08-11T07:54:51.296Z,23584.00
2022-08-11T07:55:50.839Z,21664.00
2022-08-11T07:57:07.518Z,21664.00
2022-08-11T07:58:16.164Z,22624.00
2022-08-11T07:58:53.225Z,16928.00
2022-08-11T07:59:57.578Z,11384.00
2022-08-11T08:00:51.788Z,15552.00
2022-08-11T08:01:48.673Z,22464.00
2022-08-11T08:02:48.643Z,27232.00
2022-08-11T08:03:54.504Z,28352.00
2022-08-11T08:04:49.640Z,28512.00
2022-08-11T08:05:48.619Z,28256.00
2022-08-11T08:06:48.604Z,29440.00
2022-08-11T08:07:48.593Z,27648.00
2022-08-11T08:08:48.591Z,28288.00
2022-08-11T08:09:48.586Z,31584.00
2022-08-11T08:10:48.566Z,32640.00
2022-08-11T08:11:48.561Z,30976.00
2022-08-11T08:12:48.551Z,30272.00
2022-08-11T08:13:48.539Z,32064.00
2022-08-11T08:14:48.564Z,34432.00
2022-08-11T08:15:48.518Z,34912.00
2022-08-11T08:16:48.516Z,36256.00
2022-08-11T08:18:09.915Z,36544.00
2022-08-11T08:18:49.499Z,36288.00
2022-08-11T08:19:48.502Z,36896.00
2022-08-11T08:20:48.476Z,37600.00
2022-08-11T08:21:48.464Z,38336.00
2022-08-11T08:22:48.834Z,38464.00
2022-08-11T08:23:53.796Z,36864.00
2022-08-11T08:24:49.455Z,34432.00
2022-08-11T08:25:48.432Z,35936.00
2022-08-11T08:26:51.871Z,38080.00
2022-08-11T08:27:48.415Z,38528.00
2022-08-11T08:28:48.406Z,40736.00
2022-08-11T08:29:48.407Z,41184.00
2022-08-11T08:30:48.384Z,39936.00
2022-08-11T08:31:48.365Z,41152.00
2022-08-11T08:32:48.371Z,41120.00
2022-08-11T08:33:48.357Z,42112.00
2022-08-11T08:34:48.370Z,41472.00
2022-08-11T08:35:54.084Z,40672.00
2022-08-11T08:36:49.345Z,43200.00
2022-08-11T08:37:48.328Z,40096.00
2022-08-11T08:38:48.370Z,37792.00
2022-08-11T08:39:48.367Z,41088.00
2022-08-11T08:40:48.441Z,40224.00
2022-08-11T08:41:48.287Z,44032.00
2022-08-11T08:42:48.518Z,47936.00
2022-08-11T08:43:49.300Z,48064.00
2022-08-11T08:44:48.251Z,49472.00
2022-08-11T08:45:48.477Z,50976.00
2022-08-11T08:46:48.241Z,50400.00
2022-08-11T08:47:52.551Z,50592.00
2022-08-11T08:48:48.225Z,53344.00
2022-08-11T08:49:48.211Z,52544.00
2022-08-11T08:50:48.222Z,48224.00
2022-08-11T08:52:01.493Z,45216.00
2022-08-11T08:52:49.582Z,48320.00
2022-08-11T08:53:52.375Z,47872.00
2022-08-11T08:54:49.213Z,49472.00
2022-08-11T08:55:48.166Z,49312.00
2022-08-11T08:56:48.153Z,43584.00
2022-08-11T08:57:48.149Z,38528.00
2022-08-11T08:58:48.136Z,46944.00
2022-08-11T08:59:49.515Z,50752.00
2022-08-11T09:00:48.135Z,53920.00
2022-08-11T09:01:48.175Z,55488.00
2022-08-11T09:02:48.326Z,56160.00
2022-08-11T09:04:06.844Z,56160.00
2022-08-11T09:04:49.109Z,53632.00
2022-08-11T09:05:48.086Z,48128.00
2022-08-11T09:06:51.621Z,48480.00
2022-08-11T09:07:48.062Z,49632.00
2022-08-11T09:08:49.650Z,53152.00
2022-08-11T09:09:48.040Z,54400.00
2022-08-11T09:10:48.053Z,53312.00
2022-08-11T09:11:48.025Z,57152.00
2022-08-11T09:12:48.291Z,59872.00
2022-08-11T09:14:05.892Z,61920.00
2022-08-11T09:14:49.115Z,63104.00
2022-08-11T09:15:48.006Z,64128.00
2022-08-11T09:16:47.991Z,63840.00
2022-08-11T09:17:47.974Z,63840.00
2022-08-11T09:18:47.974Z,65856.00
2022-08-11T09:19:56.560Z,63328.00
2022-08-11T09:20:48.971Z,55776.00
2022-08-11T09:21:49.429Z,55584.00
2022-08-11T09:22:47.938Z,60160.00
2022-08-11T09:24:07.407Z,65376.00
2022-08-11T09:24:48.921Z,55648.00
2022-08-11T09:25:47.923Z,40640.00
2022-08-11T09:26:47.909Z,38624.00
2022-08-11T09:27:50.204Z,50304.00
2022-08-11T09:28:47.947Z,58400.00
2022-08-11T09:29:47.884Z,43456.00
2022-08-11T09:30:47.888Z,43904.00
2022-08-11T09:31:47.862Z,49760.00
2022-08-11T09:32:47.859Z,56960.00
2022-08-11T09:33:47.849Z,61728.00
2022-08-11T09:34:47.847Z,60608.00
2022-08-11T09:35:47.851Z,56384.00
2022-08-11T09:36:47.826Z,60320.00
2022-08-11T09:37:55.692Z,64384.00
2022-08-11T09:38:49.713Z,69248.00
2022-08-11T09:39:47.831Z,67936.00
2022-08-11T09:40:52.824Z,67392.00
2022-08-11T09:42:01.880Z,68288.00
2022-08-11T09:42:48.777Z,70656.00
2022-08-11T09:43:47.762Z,72320.00
2022-08-11T09:44:48.575Z,68064.00
2022-08-11T09:45:47.764Z,69504.00
2022-08-11T09:46:47.742Z,72512.00
2022-08-11T09:47:47.750Z,73504.00
2022-08-11T09:48:47.724Z,74016.00
2022-08-11T09:49:47.727Z,59904.00
2022-08-11T09:50:47.734Z,58624.00
2022-08-11T09:52:01.966Z,60032.00
2022-08-11T09:53:16.866Z,68160.00
2022-08-11T09:54:03.718Z,73920.00
2022-08-11T09:54:48.801Z,64704.00
2022-08-11T09:55:47.689Z,59904.00
2022-08-11T09:56:47.666Z,69440.00
2022-08-11T09:57:47.675Z,76288.00
2022-08-11T09:58:47.647Z,80000.00
2022-08-11T09:59:47.648Z,81632.00
2022-08-11T10:00:47.713Z,77024.00
2022-08-11T10:01:47.674Z,78656.00
2022-08-11T10:02:47.619Z,81824.00
2022-08-11T10:03:47.607Z,85440.00
2022-08-11T10:04:47.603Z,85344.00
2022-08-11T10:05:47.605Z,78496.00
2022-08-11T10:06:47.588Z,78368.00
2022-08-11T10:07:47.590Z,75456.00
2022-08-11T10:08:47.575Z,79040.00
2022-08-11T10:09:47.567Z,81312.00
2022-08-11T10:10:47.573Z,87072.00
2022-08-11T10:11:57.792Z,83424.00
2022-08-11T10:12:48.545Z,84256.00
2022-08-11T10:14:33.462Z,87808.00
2022-08-11T10:14:48.530Z,86656.00
2022-08-11T10:15:59.585Z,89120.00
2022-08-11T10:16:48.520Z,84128.00
2022-08-11T10:17:47.516Z,78016.00
2022-08-11T10:18:47.503Z,76160.00
2022-08-11T10:20:04.230Z,76864.00
2022-08-11T10:20:48.502Z,75200.00
2022-08-11T10:21:47.485Z,76352.00
2022-08-11T10:22:47.476Z,83040.00
2022-08-11T10:24:01.034Z,83584.00
2022-08-11T10:24:48.463Z,81536.00
2022-08-11T10:25:47.469Z,81152.00
2022-08-11T10:26:47.455Z,83488.00
2022-08-11T10:28:30.558Z,85376.00
2022-08-11T10:29:09.903Z,85536.00
2022-08-11T10:29:49.759Z,83552.00
2022-08-11T10:30:47.441Z,82144.00
2022-08-11T10:31:57.530Z,74432.00
2022-08-11T10:32:58.681Z,72800.00
2022-08-11T10:33:59.261Z,73152.00
2022-08-11T10:34:51.173Z,76928.00
2022-08-11T10:35:47.396Z,79520.00
2022-08-11T10:36:47.398Z,84384.00
2022-08-11T10:38:08.654Z,85472.00
2022-08-11T10:38:48.371Z,84224.00
2022-08-11T10:39:47.411Z,84832.00
2022-08-11T10:40:47.354Z,84768.00
2022-08-11T10:42:06.567Z,82176.00
2022-08-11T10:42:57.794Z,79200.00
2022-08-11T10:44:02.876Z,77888.00
2022-08-11T10:44:48.322Z,80640.00
2022-08-11T10:45:47.321Z,79264.00
2022-08-11T10:46:47.322Z,79968.00
2022-08-11T10:47:49.680Z,69216.00
2022-08-11T10:48:47.305Z,32032.00
2022-08-11T10:49:47.291Z,16192.00
2022-08-11T10:50:47.281Z,15136.00
2022-08-11T10:51:50.973Z,14592.00
2022-08-11T10:52:47.269Z,14060.00
2022-08-11T10:53:47.261Z,13744.00
2022-08-11T10:54:47.260Z,13496.00
2022-08-11T10:55:47.299Z,13340.00
2022-08-11T10:56:47.255Z,13164.00
2022-08-11T10:58:04.279Z,13004.00
2022-08-11T10:58:48.231Z,13036.00
2022-08-11T10:59:47.218Z,11108.00
2022-08-11T11:00:47.245Z,11088.00
2022-08-11T11:01:47.220Z,11164.00
2022-08-11T11:03:07.108Z,11084.00
2022-08-11T11:03:48.197Z,10556.00
2022-08-11T11:04:50.775Z,11188.00
2022-08-11T11:06:27.502Z,11168.00
2022-08-11T11:06:48.178Z,10884.00
2022-08-11T11:07:47.168Z,10688.00
2022-08-11T11:09:47.153Z,10836.00
2022-08-11T11:10:47.141Z,10832.00
2022-08-11T11:11:47.157Z,10760.00
2022-08-11T11:12:47.124Z,84576.00
2022-08-11T11:13:53.383Z,84864.00
2022-08-11T11:14:50.801Z,84192.00
2022-08-11T11:15:47.163Z,81344.00
2022-08-11T11:16:47.112Z,79008.00
2022-08-11T11:17:47.088Z,81536.00
2022-08-11T11:18:47.076Z,83072.00
2022-08-11T11:19:48.074Z,85600.00
2022-08-11T11:20:47.688Z,82720.00
2022-08-11T11:21:47.076Z,80992.00
2022-08-11T11:22:47.052Z,82336.00
2022-08-11T11:23:47.046Z,80096.00
2022-08-11T11:24:47.040Z,82080.00
2022-08-11T11:25:47.034Z,83264.00
2022-08-11T11:26:47.039Z,83968.00
2022-08-11T11:27:47.024Z,81760.00
2022-08-11T11:28:47.084Z,89696.00
2022-08-11T11:29:47.008Z,94240.00
2022-08-11T11:30:47.034Z,96640.00
2022-08-11T11:31:47.007Z,98304.00
2022-08-11T11:32:49.668Z,98336.00
2022-08-11T11:34:06.166Z,98016.00
2022-08-11T11:34:53.476Z,105920.00
2022-08-11T11:35:48.014Z,101600.00
2022-08-11T11:36:46.983Z,101376.00
2022-08-11T11:38:03.488Z,98816.00
2022-08-11T11:38:47.937Z,97856.00
2022-08-11T11:39:46.994Z,92128.00
2022-08-11T11:40:46.927Z,89312.00
2022-08-11T11:41:46.935Z,89696.00
2022-08-11T11:42:46.914Z,93632.00
2022-08-11T11:43:46.908Z,103040.00
2022-08-11T11:44:46.914Z,105696.00
2022-08-11T11:45:46.899Z,102112.00
2022-08-11T11:46:46.916Z,96800.00
2022-08-11T11:47:46.887Z,93440.00
2022-08-11T11:48:46.878Z,96416.00
2022-08-11T11:49:46.876Z,98048.00
2022-08-11T11:50:46.864Z,96256.00
2022-08-11T11:51:50.005Z,95808.00
2022-08-11T11:52:46.868Z,94400.00
2022-08-11T11:53:46.853Z,94144.00
2022-08-11T11:54:46.841Z,93984.00
2022-08-11T11:55:46.865Z,92384.00
2022-08-11T11:56:46.830Z,87072.00
2022-08-11T11:57:59.101Z,92544.00
2022-08-11T11:58:47.819Z,91360.00
2022-08-11T11:59:46.820Z,88736.00
2022-08-11T12:00:46.808Z,92448.00
2022-08-11T12:01:50.393Z,94816.00
2022-08-11T12:02:47.816Z,90432.00
2022-08-11T12:03:46.796Z,92480.00
2022-08-11T12:04:46.786Z,93312.00
2022-08-11T12:05:46.778Z,92544.00
2022-08-11T12:06:46.773Z,92064.00
2022-08-11T12:07:46.792Z,97120.00
2022-08-11T12:08:47.780Z,84352.00
2022-08-11T12:09:46.765Z,90368.00
2022-08-11T12:10:46.755Z,101664.00
2022-08-11T12:11:46.753Z,100736.00
2022-08-11T12:12:46.757Z,97728.00
2022-08-11T12:13:46.744Z,93824.00
2022-08-11T12:14:46.735Z,100448.00
2022-08-11T12:16:32.017Z,105728.00
2022-08-11T12:16:47.728Z,97120.00
2022-08-11T12:17:51.047Z,92544.00
2022-08-11T12:18:47.707Z,96864.00
2022-08-11T12:19:48.586Z,99264.00
2022-08-11T12:20:46.710Z,87328.00